This is the latest recevied weather packets stored in our database for station/object LU4EGV-13. If no packets are shown the sender has not sent any weather packets the latest 10 day(s).
| Time | Temp. | Humidity | Pressure | Rain* | Wind** | Luminosity | Snow |
|---|---|---|---|---|---|---|---|
| 1777676060 | 21.11° C | 69% | 1009.6 hPa | 0 mm | - | - | - |
| 1777675451 | 20° C | 74% | 1009 hPa | 0 mm | - | - | - |
| 1777674844 | 19.44° C | 73% | 1008.8 hPa | 0 mm | - | - | - |
| 1777674239 | 19.44° C | 71% | 1008.6 hPa | 0 mm | - | - | - |
| 1777673631 | 19.44° C | 69% | 1008.6 hPa | 0 mm | - | - | - |
| 1777673025 | 20° C | 67% | 1008.4 hPa | 0 mm | - | - | - |
| 1777672419 | 20.56° C | 66% | 1008.1 hPa | 0 mm | - | - | - |
| 1777671813 | 21.11° C | 64% | 1008.1 hPa | 0 mm | - | - | - |
| 1777671207 | 21.11° C | 62% | 1007.7 hPa | 0 mm | - | - | - |
| 1777670601 | 21.67° C | 59% | 1007.7 hPa | 0 mm | - | - | - |
| 1777669994 | 22.78° C | 55% | 1007.5 hPa | 0 mm | - | - | - |
| 1777669388 | 23.33° C | 56% | 1007.5 hPa | 0 mm | - | - | - |
| 1777668792 | 23.89° C | 55% | 1007.5 hPa | 0 mm | - | - | - |
| 1777668176 | 25° C | 53% | 1007.4 hPa | 0 mm | - | - | - |
| 1777667570 | 25° C | 53% | 1007.4 hPa | 0 mm | - | - | - |
| 1777666964 | 23.89° C | 55% | 1007.4 hPa | 0 mm | - | - | - |
| 1777666388 | 23.89° C | 54% | 1007.3 hPa | 0 mm | - | - | - |
| 1777665751 | 24.44° C | 54% | 1007.2 hPa | 0 mm | - | - | - |
| 1777665145 | 24.44° C | 55% | 1007 hPa | 0 mm | - | - | - |
| 1777664542 | 23.89° C | 55% | 1007.1 hPa | 0 mm | - | - | - |
| 1777663933 | 24.44° C | 55% | 1007 hPa | 0 mm | - | - | - |
| 1777663327 | 24.44° C | 56% | 1007 hPa | 0 mm | - | - | - |
| 1777662720 | 24.44° C | 55% | 1006.9 hPa | 0 mm | - | - | - |
| 1777662113 | 23.89° C | 56% | 1006.9 hPa | 0 mm | - | - | - |
| 1777661508 | 24.44° C | 55% | 1006.7 hPa | 0 mm | - | - | - |
* Rain latest hour (hover to see other rain measurements)
** Current wind speed in m/s (hover to see current wind gust speed)